DXMG weather

Sansanné-Mango Airport
Mango, Savanes Region, Togo

Public forecast

Using degrees Celsius for public forecast. Weather courtesy of forecast.io.

METAR (pilot weather report)

Closest report is Niamtougou International Airport, 51.6 nm (95.6 km) SE. Retrieved 2019/03/24 14:00 UTC (58 minutes ago):

DXNG 241400Z VRB04KT 9999 FEW012 37/10 Q1011

TAF (pilot weather forecast)

Closest forecast is Niamtougou International Airport, 51.6 nm (95.6 km) SE. Retrieved 2019/03/24 12:24 UTC (3 hours ago):

TAF TAF DXNG 241100Z 2412/2512 VRB05KT 9999 FEW010